createdAt,value
2023-02-13T00:00:21.775Z,7.30
2023-02-13T00:02:48.682Z,7.30
2023-02-13T00:05:15.867Z,7.30
2023-02-13T00:07:42.766Z,7.30
2023-02-13T00:10:10.161Z,7.30
2023-02-13T00:12:37.262Z,7.30
2023-02-13T00:15:05.083Z,7.40
2023-02-13T00:17:32.537Z,7.30
2023-02-13T00:19:59.422Z,7.30
2023-02-13T00:22:26.411Z,7.30
2023-02-13T00:24:53.326Z,7.30
2023-02-13T00:27:20.180Z,7.20
2023-02-13T00:29:47.323Z,7.20
2023-02-13T00:32:15.327Z,7.20
2023-02-13T00:34:44.112Z,7.30
2023-02-13T00:37:11.270Z,7.30
2023-02-13T00:39:38.122Z,7.20
2023-02-13T00:42:05.865Z,7.20
2023-02-13T00:44:32.812Z,7.30
2023-02-13T00:47:01.490Z,7.30
2023-02-13T00:49:28.584Z,7.30
2023-02-13T00:51:55.468Z,7.30
2023-02-13T00:54:22.547Z,7.30
2023-02-13T00:56:50.031Z,7.30
2023-02-13T00:59:17.745Z,7.30
2023-02-13T01:01:45.075Z,7.20
2023-02-13T01:04:12.019Z,7.20
2023-02-13T01:06:38.856Z,7.20
2023-02-13T01:09:06.490Z,7.30
2023-02-13T01:11:35.870Z,7.30
2023-02-13T01:14:03.021Z,7.20
2023-02-13T01:16:29.927Z,7.20
2023-02-13T01:18:56.852Z,7.20
2023-02-13T01:21:24.502Z,7.20
2023-02-13T01:23:53.568Z,7.20
2023-02-13T01:26:23.112Z,7.20
2023-02-13T01:28:57.911Z,7.20
2023-02-13T01:31:25.351Z,7.20
2023-02-13T01:33:52.506Z,7.20
2023-02-13T01:36:22.021Z,7.20
2023-02-13T01:38:48.918Z,7.20
2023-02-13T01:41:15.903Z,7.10
2023-02-13T01:43:56.483Z,7.20
2023-02-13T01:46:37.709Z,7.10
2023-02-13T01:49:25.590Z,7.10
2023-02-13T01:51:56.210Z,7.10
2023-02-13T01:54:31.025Z,7.10
2023-02-13T01:57:13.266Z,7.10
2023-02-13T02:00:01.442Z,7.10
2023-02-13T02:02:31.695Z,7.10
2023-02-13T02:05:02.589Z,7.10
2023-02-13T02:07:31.393Z,7.10
2023-02-13T02:10:08.481Z,7.10
2023-02-13T02:12:52.199Z,7.10
2023-02-13T02:15:20.180Z,7.10
2023-02-13T02:17:47.390Z,7.10
2023-02-13T02:20:46.778Z,7.10
2023-02-13T02:23:18.549Z,7.00
2023-02-13T02:26:04.076Z,7.00
2023-02-13T02:28:49.874Z,7.00
2023-02-13T02:31:38.893Z,7.00
2023-02-13T02:34:41.251Z,7.00
2023-02-13T02:37:33.835Z,7.00
2023-02-13T02:40:41.106Z,7.00
2023-02-13T02:43:44.737Z,7.00
2023-02-13T02:46:24.827Z,7.00
2023-02-13T02:49:13.321Z,6.90
2023-02-13T02:52:02.631Z,6.90
2023-02-13T02:55:03.960Z,6.90
2023-02-13T02:57:53.041Z,6.90
2023-02-13T03:00:42.935Z,6.90
2023-02-13T03:03:42.840Z,6.90
2023-02-13T03:06:22.649Z,6.90
2023-02-13T03:09:18.829Z,6.90
2023-02-13T03:12:09.096Z,6.90
2023-02-13T03:14:36.190Z,6.90
2023-02-13T03:17:23.588Z,6.90
2023-02-13T03:20:41.711Z,6.90
2023-02-13T03:23:23.122Z,6.90
2023-02-13T03:26:19.062Z,7.00
2023-02-13T03:29:26.525Z,6.90
2023-02-13T03:32:03.333Z,6.90
2023-02-13T03:34:56.976Z,6.80
2023-02-13T03:37:49.453Z,6.80
2023-02-13T03:40:22.273Z,6.80
2023-02-13T03:42:56.017Z,6.80
2023-02-13T03:45:45.512Z,6.90
2023-02-13T03:48:35.093Z,6.90
2023-02-13T03:51:03.305Z,6.90
2023-02-13T03:53:34.804Z,6.90
2023-02-13T03:56:21.867Z,6.90
2023-02-13T03:59:11.365Z,6.80
2023-02-13T04:01:39.613Z,6.80
2023-02-13T04:04:09.939Z,6.80
2023-02-13T04:06:43.889Z,6.80
2023-02-13T04:09:10.868Z,6.80
2023-02-13T04:11:53.243Z,6.80
2023-02-13T04:14:28.998Z,6.80
2023-02-13T04:17:27.228Z,6.80
2023-02-13T04:19:54.692Z,6.80
2023-02-13T04:22:21.574Z,6.80
2023-02-13T04:24:48.815Z,6.80
2023-02-13T04:27:17.370Z,6.80
2023-02-13T04:29:44.695Z,6.70
2023-02-13T04:32:12.116Z,6.80
2023-02-13T04:34:39.179Z,6.80
2023-02-13T04:37:06.085Z,6.70
2023-02-13T04:39:33.016Z,6.70
2023-02-13T04:41:59.892Z,6.70
2023-02-13T04:44:26.877Z,6.70
2023-02-13T04:46:53.718Z,6.70
2023-02-13T04:49:20.612Z,6.70
2023-02-13T04:51:47.549Z,6.60
2023-02-13T04:54:15.165Z,6.60
2023-02-13T04:56:42.061Z,6.60
2023-02-13T04:59:08.917Z,6.60
2023-02-13T05:01:35.873Z,6.70
2023-02-13T05:04:02.869Z,6.60
2023-02-13T05:06:29.687Z,6.60
2023-02-13T05:08:56.538Z,6.70
2023-02-13T05:11:23.493Z,6.70
2023-02-13T05:13:50.314Z,6.70
2023-02-13T05:16:17.184Z,6.70
2023-02-13T05:18:43.998Z,6.70
2023-02-13T05:21:29.392Z,6.60
2023-02-13T05:23:56.292Z,6.70
2023-02-13T05:26:23.260Z,6.60
2023-02-13T05:29:08.835Z,6.60
2023-02-13T05:31:35.857Z,6.60
2023-02-13T05:34:02.793Z,6.60
2023-02-13T05:36:29.693Z,6.60
2023-02-13T05:38:56.503Z,6.60
2023-02-13T05:41:23.353Z,6.50
2023-02-13T05:43:50.286Z,6.50
2023-02-13T05:46:17.148Z,6.50
2023-02-13T05:48:44.029Z,6.40
2023-02-13T05:51:10.984Z,6.50
2023-02-13T05:53:38.252Z,6.40
2023-02-13T05:56:06.219Z,6.40
2023-02-13T05:58:34.233Z,6.40
2023-02-13T06:01:01.446Z,6.40
2023-02-13T06:03:30.308Z,6.40
2023-02-13T06:05:58.164Z,6.40
2023-02-13T06:08:25.882Z,6.40
2023-02-13T06:10:53.024Z,6.40
2023-02-13T06:13:20.021Z,6.40
2023-02-13T06:15:46.925Z,6.40
2023-02-13T06:18:14.034Z,6.40
2023-02-13T06:20:40.997Z,6.40
2023-02-13T06:23:07.906Z,6.40
2023-02-13T06:25:36.446Z,6.40
2023-02-13T06:28:04.256Z,6.40
2023-02-13T06:30:31.628Z,6.40
2023-02-13T06:32:58.606Z,6.40
2023-02-13T06:35:25.678Z,6.40
2023-02-13T06:37:52.828Z,6.30
2023-02-13T06:40:19.782Z,6.40
2023-02-13T06:42:46.847Z,6.30
2023-02-13T06:45:14.128Z,6.40
2023-02-13T06:47:45.314Z,6.40
2023-02-13T06:50:13.799Z,6.40
2023-02-13T06:52:45.187Z,6.40
2023-02-13T06:55:12.175Z,6.40
2023-02-13T06:57:39.028Z,6.40
2023-02-13T07:00:06.682Z,6.40
2023-02-13T07:02:33.626Z,6.30
2023-02-13T07:05:00.563Z,6.30
2023-02-13T07:07:27.465Z,6.40
2023-02-13T07:09:54.320Z,6.40
2023-02-13T07:12:21.328Z,6.40
2023-02-13T07:14:48.261Z,6.40
2023-02-13T07:17:15.163Z,6.40
2023-02-13T07:19:41.971Z,6.40
2023-02-13T07:22:08.829Z,6.40
2023-02-13T07:24:35.767Z,6.40
2023-02-13T07:27:02.600Z,6.40
2023-02-13T07:29:29.523Z,6.40
2023-02-13T07:31:56.396Z,6.40
2023-02-13T07:34:23.264Z,6.40
2023-02-13T07:36:50.113Z,6.50
2023-02-13T07:39:17.013Z,6.50
2023-02-13T07:41:43.792Z,6.60
2023-02-13T07:44:10.779Z,6.70
2023-02-13T07:46:38.082Z,6.70
2023-02-13T07:49:04.942Z,6.70
2023-02-13T07:51:31.845Z,6.70
2023-02-13T07:53:58.747Z,6.80
2023-02-13T07:56:25.670Z,6.80
2023-02-13T07:58:52.524Z,6.80
2023-02-13T08:01:20.253Z,6.80
2023-02-13T08:03:51.381Z,6.80
2023-02-13T08:06:19.922Z,6.90
2023-02-13T08:08:47.137Z,6.90
2023-02-13T08:11:51.326Z,7.00
2023-02-13T08:14:18.232Z,7.10
2023-02-13T08:16:45.162Z,7.10
2023-02-13T08:19:12.512Z,7.10
2023-02-13T08:21:40.696Z,7.10
2023-02-13T08:24:07.848Z,7.10
2023-02-13T08:26:34.812Z,7.20
2023-02-13T08:29:02.167Z,7.20
2023-02-13T08:31:29.157Z,7.10
2023-02-13T08:33:57.551Z,7.10
2023-02-13T08:36:24.919Z,7.20
2023-02-13T08:38:51.922Z,7.20
2023-02-13T08:41:20.935Z,7.20
2023-02-13T08:43:49.327Z,7.20
2023-02-13T08:46:17.714Z,7.30
2023-02-13T08:48:44.798Z,7.30
2023-02-13T08:51:13.564Z,7.40
2023-02-13T08:53:42.400Z,7.40
2023-02-13T08:56:09.537Z,7.40
2023-02-13T08:58:36.452Z,7.40
2023-02-13T09:01:09.637Z,7.40
2023-02-13T09:03:36.841Z,7.40
2023-02-13T09:06:04.219Z,7.40
2023-02-13T09:08:31.375Z,7.40
2023-02-13T09:11:01.274Z,7.50
2023-02-13T09:13:33.630Z,7.50
2023-02-13T09:16:02.455Z,7.60
2023-02-13T09:18:29.470Z,7.70
2023-02-13T09:21:00.946Z,7.80
2023-02-13T09:23:31.859Z,7.90
2023-02-13T09:26:01.130Z,7.90
2023-02-13T09:28:29.658Z,8.00
2023-02-13T09:30:56.784Z,8.00
2023-02-13T09:33:24.504Z,7.90
2023-02-13T09:35:51.592Z,8.00
2023-02-13T09:38:18.494Z,8.10
2023-02-13T09:40:54.982Z,8.10
2023-02-13T09:43:31.638Z,8.00
2023-02-13T09:46:12.077Z,8.10
2023-02-13T09:48:41.908Z,8.10
2023-02-13T09:51:17.204Z,8.10
2023-02-13T09:53:56.421Z,8.20
2023-02-13T09:57:14.614Z,8.30
2023-02-13T09:59:57.206Z,8.30
2023-02-13T10:02:49.487Z,8.20
2023-02-13T10:05:40.998Z,8.30
2023-02-13T10:08:34.832Z,8.40
2023-02-13T10:11:26.320Z,8.50
2023-02-13T10:14:10.555Z,8.50
2023-02-13T10:16:51.195Z,8.40
2023-02-13T10:19:41.309Z,8.50
2023-02-13T10:22:15.992Z,8.60
2023-02-13T10:25:25.464Z,8.70
2023-02-13T10:27:58.168Z,8.70
2023-02-13T10:30:28.068Z,8.50
2023-02-13T10:33:20.329Z,8.40
2023-02-13T10:35:59.351Z,8.30
2023-02-13T10:38:31.183Z,8.30
2023-02-13T10:41:05.743Z,8.40
2023-02-13T10:43:47.112Z,8.40
2023-02-13T10:46:19.995Z,8.50
2023-02-13T10:49:08.904Z,8.60
2023-02-13T10:52:02.536Z,8.50
2023-02-13T10:54:51.002Z,8.60
2023-02-13T10:58:01.937Z,8.50
2023-02-13T11:00:49.781Z,8.50
2023-02-13T11:03:25.214Z,8.60
2023-02-13T11:05:53.906Z,8.70
2023-02-13T11:08:25.471Z,8.80
2023-02-13T11:10:53.066Z,9.00
2023-02-13T11:13:25.852Z,9.10
2023-02-13T11:16:07.429Z,9.00
2023-02-13T11:18:44.377Z,9.00
2023-02-13T11:21:18.598Z,8.90
2023-02-13T11:23:50.149Z,9.00
2023-02-13T11:26:24.300Z,9.20
2023-02-13T11:28:59.338Z,9.20
2023-02-13T11:31:28.491Z,9.30
2023-02-13T11:33:58.860Z,9.30
2023-02-13T11:36:31.641Z,9.30
2023-02-13T11:39:18.989Z,9.40
2023-02-13T11:41:47.807Z,9.60
2023-02-13T11:44:41.359Z,9.60
2023-02-13T11:47:08.484Z,9.40
2023-02-13T11:49:39.534Z,9.30
2023-02-13T11:52:12.528Z,9.40
2023-02-13T11:54:44.657Z,9.60
2023-02-13T11:57:23.799Z,9.60
2023-02-13T11:59:52.702Z,9.80
2023-02-13T12:02:22.434Z,9.90
2023-02-13T12:04:52.078Z,9.90
2023-02-13T12:07:30.624Z,9.60
2023-02-13T12:10:21.356Z,9.50
2023-02-13T12:12:53.845Z,9.40
2023-02-13T12:15:27.226Z,9.20
2023-02-13T12:18:31.893Z,9.20
2023-02-13T12:21:01.516Z,9.40
2023-02-13T12:23:39.711Z,9.40
2023-02-13T12:26:24.659Z,9.40
2023-02-13T12:29:20.598Z,9.50
2023-02-13T12:32:18.112Z,9.60
2023-02-13T12:35:25.950Z,9.60
2023-02-13T12:38:04.872Z,9.40
2023-02-13T12:40:37.885Z,9.40
2023-02-13T12:43:33.466Z,9.50
2023-02-13T12:46:22.016Z,9.50
2023-02-13T12:48:51.671Z,9.70
2023-02-13T12:51:30.680Z,9.70
2023-02-13T12:54:00.308Z,9.90
2023-02-13T12:57:05.484Z,10.00
2023-02-13T13:00:07.195Z,10.00
2023-02-13T13:02:59.399Z,9.90
2023-02-13T13:06:10.480Z,10.00
2023-02-13T13:08:59.495Z,10.20
2023-02-13T13:11:51.625Z,10.30
2023-02-13T13:14:37.223Z,10.30
2023-02-13T13:17:07.223Z,10.50
2023-02-13T13:19:59.567Z,10.40
2023-02-13T13:22:43.855Z,10.60
2023-02-13T13:25:22.821Z,10.80
2023-02-13T13:27:57.055Z,10.60
2023-02-13T13:30:33.246Z,10.60
2023-02-13T13:33:10.073Z,11.40
2023-02-13T13:35:39.965Z,11.80
2023-02-13T13:38:12.472Z,11.80
2023-02-13T13:40:50.976Z,12.30
2023-02-13T13:43:33.214Z,12.50
2023-02-13T13:46:04.017Z,12.90
2023-02-13T13:48:37.896Z,12.70
2023-02-13T13:51:07.768Z,12.70
2023-02-13T13:53:36.071Z,12.40
2023-02-13T13:56:05.905Z,11.40
2023-02-13T13:58:44.776Z,11.20
2023-02-13T14:01:14.834Z,10.80
2023-02-13T14:04:03.708Z,10.80
2023-02-13T14:06:45.835Z,11.20
2023-02-13T14:09:28.079Z,11.50
2023-02-13T14:11:56.709Z,11.60
2023-02-13T14:14:30.427Z,11.90
2023-02-13T14:17:02.954Z,11.70
2023-02-13T14:19:37.831Z,11.80
2023-02-13T14:22:20.014Z,11.70
2023-02-13T14:24:59.036Z,11.80
2023-02-13T14:27:55.045Z,11.80
2023-02-13T14:30:29.669Z,11.80
2023-02-13T14:33:00.485Z,12.10
2023-02-13T14:35:33.741Z,12.20
2023-02-13T14:38:03.592Z,12.20
2023-02-13T14:40:50.846Z,11.90
2023-02-13T14:43:39.555Z,11.60
2023-02-13T14:46:24.689Z,11.60
2023-02-13T14:49:06.891Z,11.30
2023-02-13T14:51:38.782Z,11.50
2023-02-13T14:54:29.572Z,11.60
2023-02-13T14:57:27.967Z,11.80
2023-02-13T15:00:03.547Z,12.10
2023-02-13T15:02:35.558Z,11.50
2023-02-13T15:05:07.056Z,11.30
2023-02-13T15:07:37.627Z,11.80
2023-02-13T15:10:33.685Z,12.00
2023-02-13T15:13:02.660Z,12.40
2023-02-13T15:15:37.033Z,12.40
2023-02-13T15:18:18.845Z,12.20
2023-02-13T15:20:47.415Z,11.80
2023-02-13T15:23:21.892Z,11.60
2023-02-13T15:25:56.194Z,11.10
2023-02-13T15:28:25.032Z,10.90
2023-02-13T15:30:59.342Z,10.60
2023-02-13T15:33:32.506Z,10.20
2023-02-13T15:36:06.227Z,10.30
2023-02-13T15:38:36.398Z,10.30
2023-02-13T15:41:19.718Z,10.30
2023-02-13T15:43:50.346Z,10.10
2023-02-13T15:46:35.229Z,10.10
2023-02-13T15:49:17.733Z,10.30
2023-02-13T15:51:45.415Z,10.40
2023-02-13T15:54:21.077Z,10.10
2023-02-13T15:56:49.551Z,9.80
2023-02-13T15:59:18.397Z,9.60
2023-02-13T16:01:46.438Z,9.60
2023-02-13T16:04:16.330Z,9.40
2023-02-13T16:06:46.130Z,9.10
2023-02-13T16:09:48.456Z,8.90
2023-02-13T16:12:25.837Z,8.60
2023-02-13T16:15:00.033Z,8.30
2023-02-13T16:17:33.821Z,7.90
2023-02-13T16:20:07.075Z,7.70
2023-02-13T16:22:35.337Z,7.30
2023-02-13T16:25:13.090Z,7.10
2023-02-13T16:27:52.662Z,6.90
2023-02-13T16:30:39.732Z,6.70
2023-02-13T16:33:16.079Z,6.50
2023-02-13T16:35:50.409Z,6.30
2023-02-13T16:38:40.593Z,6.10
2023-02-13T16:41:19.571Z,5.90
2023-02-13T16:43:53.181Z,5.80
2023-02-13T16:46:36.567Z,5.70
2023-02-13T16:49:16.751Z,5.50
2023-02-13T16:51:55.263Z,5.30
2023-02-13T16:54:30.983Z,5.10
2023-02-13T16:57:06.561Z,5.10
2023-02-13T16:59:35.901Z,5.30
2023-02-13T17:02:30.258Z,5.20
2023-02-13T17:05:09.532Z,5.20
2023-02-13T17:07:41.729Z,5.10
2023-02-13T17:10:22.141Z,4.90
2023-02-13T17:12:51.118Z,4.70
2023-02-13T17:15:22.664Z,4.70
2023-02-13T17:18:00.996Z,4.60
2023-02-13T17:20:31.364Z,4.40
2023-02-13T17:23:01.119Z,4.30
2023-02-13T17:25:32.245Z,4.20
2023-02-13T17:28:17.022Z,4.20
2023-02-13T17:30:44.788Z,4.10
2023-02-13T17:33:21.057Z,4.20
2023-02-13T17:35:48.132Z,4.10
2023-02-13T17:38:15.081Z,4.00
2023-02-13T17:40:43.585Z,3.90
2023-02-13T17:43:12.270Z,4.00
2023-02-13T17:45:39.856Z,3.90
2023-02-13T17:48:06.796Z,3.80
2023-02-13T17:50:35.295Z,3.70
2023-02-13T17:53:07.820Z,3.70
2023-02-13T17:55:35.568Z,3.70
2023-02-13T17:58:02.452Z,3.70
2023-02-13T18:00:31.931Z,3.60
2023-02-13T18:03:00.285Z,3.50
2023-02-13T18:05:28.335Z,3.40
2023-02-13T18:07:55.754Z,3.40
2023-02-13T18:10:25.767Z,3.30
2023-02-13T18:12:53.869Z,3.20
2023-02-13T18:15:21.224Z,3.10
2023-02-13T18:17:48.564Z,3.10
2023-02-13T18:20:18.683Z,3.10
2023-02-13T18:22:45.605Z,3.00
2023-02-13T18:25:13.267Z,2.90
2023-02-13T18:27:40.193Z,2.80
2023-02-13T18:30:08.404Z,2.70
2023-02-13T18:32:35.635Z,2.70
2023-02-13T18:35:02.804Z,2.60
2023-02-13T18:37:33.557Z,2.60
2023-02-13T18:40:01.235Z,2.50
2023-02-13T18:42:28.118Z,2.60
2023-02-13T18:44:54.994Z,2.60
2023-02-13T18:47:21.808Z,2.50
2023-02-13T18:49:48.633Z,2.40
2023-02-13T18:52:15.771Z,2.40
2023-02-13T18:54:42.657Z,2.30
2023-02-13T18:57:09.575Z,2.30
2023-02-13T18:59:36.547Z,2.20
2023-02-13T19:02:04.391Z,2.10
2023-02-13T19:04:31.790Z,2.00
2023-02-13T19:06:58.677Z,2.20
2023-02-13T19:09:25.580Z,2.20
2023-02-13T19:11:52.503Z,2.30
2023-02-13T19:14:19.822Z,2.20
2023-02-13T19:16:46.675Z,2.10
2023-02-13T19:19:14.225Z,2.00
2023-02-13T19:21:42.116Z,2.00
2023-02-13T19:24:14.192Z,2.00
2023-02-13T19:26:41.444Z,2.10
2023-02-13T19:29:09.146Z,2.20
2023-02-13T19:31:37.344Z,2.10
2023-02-13T19:34:05.869Z,1.90
2023-02-13T19:36:32.699Z,1.90
2023-02-13T19:39:06.260Z,1.80
2023-02-13T19:41:33.328Z,1.70
2023-02-13T19:44:01.081Z,1.60
2023-02-13T19:46:32.080Z,1.50
2023-02-13T19:48:59.239Z,1.30
2023-02-13T19:51:28.563Z,1.30
2023-02-13T19:53:58.498Z,1.30
2023-02-13T19:56:27.250Z,1.30
2023-02-13T19:58:54.644Z,1.30
2023-02-13T20:01:23.384Z,1.30
2023-02-13T20:03:50.888Z,1.40
2023-02-13T20:06:21.130Z,1.50
2023-02-13T20:08:48.400Z,1.50
2023-02-13T20:11:17.774Z,1.50
2023-02-13T20:13:44.968Z,1.40
2023-02-13T20:16:15.123Z,1.40
2023-02-13T20:18:42.724Z,1.30
2023-02-13T20:21:14.815Z,1.20
2023-02-13T20:23:42.736Z,1.30
2023-02-13T20:26:13.793Z,1.40
2023-02-13T20:28:42.207Z,1.40
2023-02-13T20:31:14.797Z,1.40
2023-02-13T20:33:42.012Z,1.30
2023-02-13T20:36:26.779Z,1.20
2023-02-13T20:38:56.483Z,1.10
2023-02-13T20:41:25.201Z,1.00
2023-02-13T20:43:52.661Z,1.10
2023-02-13T20:46:20.217Z,1.00
2023-02-13T20:48:48.364Z,1.00
2023-02-13T20:51:16.821Z,1.20
2023-02-13T20:53:45.113Z,1.30
2023-02-13T20:56:21.864Z,1.50
2023-02-13T20:58:51.941Z,1.50
2023-02-13T21:01:25.316Z,1.70
2023-02-13T21:03:54.768Z,1.60
2023-02-13T21:06:21.634Z,1.40
2023-02-13T21:08:49.025Z,1.30
2023-02-13T21:11:16.812Z,1.20
2023-02-13T21:13:44.152Z,1.10
2023-02-13T21:16:17.707Z,1.10
2023-02-13T21:18:47.254Z,1.10
2023-02-13T21:21:15.109Z,1.10
2023-02-13T21:23:41.950Z,1.10
2023-02-13T21:26:12.778Z,1.00
2023-02-13T21:28:41.009Z,0.90
2023-02-13T21:31:10.552Z,0.90
2023-02-13T21:33:37.828Z,0.90
2023-02-13T21:36:07.408Z,1.30
2023-02-13T21:38:35.251Z,1.40
2023-02-13T21:41:14.383Z,1.30
2023-02-13T21:43:42.284Z,1.20
2023-02-13T21:46:11.171Z,1.00
2023-02-13T21:48:38.688Z,0.90
2023-02-13T21:51:11.376Z,0.80
2023-02-13T21:53:39.105Z,0.70
2023-02-13T21:56:08.656Z,0.70
2023-02-13T21:58:36.993Z,0.70
2023-02-13T22:01:17.439Z,0.70
2023-02-13T22:03:52.593Z,0.80
2023-02-13T22:06:21.058Z,0.70
2023-02-13T22:08:48.767Z,0.60
2023-02-13T22:11:18.486Z,0.60
2023-02-13T22:13:45.350Z,0.50
2023-02-13T22:16:14.894Z,0.50
2023-02-13T22:18:44.203Z,0.50
2023-02-13T22:21:13.967Z,0.50
2023-02-13T22:23:42.365Z,0.60
2023-02-13T22:26:35.458Z,0.60
2023-02-13T22:29:05.986Z,0.70
2023-02-13T22:31:33.774Z,0.60
2023-02-13T22:34:05.346Z,0.70
2023-02-13T22:36:34.443Z,0.80
2023-02-13T22:39:01.329Z,0.90
2023-02-13T22:41:28.769Z,0.80
2023-02-13T22:43:55.911Z,0.70
2023-02-13T22:46:23.844Z,0.70
2023-02-13T22:48:54.741Z,0.60
2023-02-13T22:51:27.425Z,0.40
2023-02-13T22:53:58.675Z,0.40
2023-02-13T22:56:26.866Z,0.40
2023-02-13T22:58:54.159Z,0.30
2023-02-13T23:01:23.155Z,0.30
2023-02-13T23:03:50.039Z,0.30
2023-02-13T23:06:17.447Z,0.20
2023-02-13T23:08:44.782Z,0.10
2023-02-13T23:11:35.261Z,0.10
2023-02-13T23:14:02.639Z,0.10
2023-02-13T23:16:49.965Z,0.20
2023-02-13T23:19:16.964Z,0.20
2023-02-13T23:21:43.910Z,0.20
2023-02-13T23:24:10.942Z,0.20
2023-02-13T23:26:37.879Z,0.10
2023-02-13T23:29:04.876Z,0.10
2023-02-13T23:31:31.872Z,0.00
2023-02-13T23:33:58.842Z,0.10
2023-02-13T23:36:25.656Z,0.20
2023-02-13T23:38:52.521Z,0.30
2023-02-13T23:41:19.353Z,0.30
2023-02-13T23:43:46.171Z,0.30
2023-02-13T23:46:13.081Z,0.30
2023-02-13T23:48:39.981Z,0.20
2023-02-13T23:51:06.819Z,0.30
2023-02-13T23:53:36.985Z,0.20
2023-02-13T23:56:04.897Z,0.00
2023-02-13T23:58:31.900Z,0.00
